Amherst, MA

4:12 PM EST on December 17, 2014 (GMT -0500)
Computer Science Bldg - University of Massachusetts | Change Station
CLOSE
Current Station
Personal Weather Station
Location: Amherst, MA
Elevation: 249 ft
Nearby Weather Stations

Elev 249 ft 42.40 °N, 72.50 °W | Updated 43 seconds ago

Overcast
Overcast
47.1 °F
Feels Like 44 °F
N
6.0
Wind Variable Wind from North
Gusts 6.0 mph

Today
High -- | Low -- °F
--% Chance of Precip.
Yesterday
High -- | Low -- °F
Precip. -- in
7:13 AM 4:18 PM
Waning Crescent, 20% visible
Pressure 29.78 in
Visibility 10.0 miles
Clouds Mostly Cloudy 2800 ft
Overcast 8000 ft
Windchill 44 °F
Dew Point 39 °F
Humidity 73%
Rainfall 0.36 in
Snow Depth Not available.
UV 0 out of 12
Pollen .10 out of 12
Air Quality Not available.
Flu Activity Not available.
METAR KCEF 172058Z AUTO 30010KT 10SM BKN028 OVC080 08/03 A2975 RMK AO2 SLP082 T00780033 52006

More Conditions Fewer Conditions

Pressure 29.78 in
Visibility 10.0 miles
Clouds Mostly Cloudy 2800 ft
Overcast 8000 ft
Windchill 44 °F
Dew Point 39 °F
Humidity 73%
Rainfall 0.36 in
Snow Depth Not available.
UV 0 out of 12
Pollen .10 out of 12
Air Quality Not available.
Flu Activity Not available.
METAR KCEF 172058Z AUTO 30010KT 10SM BKN028 OVC080 08/03 A2975 RMK AO2 SLP082 T00780033 52006

More Conditions Fewer Conditions

10-Day Weather Forecast

Almanac

Astronomy

Dec. 17, 2014 Rise Set
Actual Time
Civil Twilight
Nautical Twilight
Astronomical Twilight
Moon
Length of Visible Light
Length of Day
Tomorrow will be .
, % of the Moon is Illuminated

Today's Extremes

State Highs State Lows

Community

WunderPhotos

Upload Photos

1,778,805 photos uploaded!

WunderBlogs® & News

Nearby

Air Quality

  Air Quality AQ Index Pollutant
Not available.

Snow Depth

Station Depth Elevation

Earthquake Activity

City Distance Mag. Time & Date
Minimum magnitude displayed is 2.5.

Coastal Water Temperatures

Place Temperature

Nearby Weather Stations